sensor_id;sensor_type;location;lat;lon;timestamp;P1;durP1;ratioP1;P2;durP2;ratioP2
71665;SDS011;59503;53.486;10.196;2023-04-15T00:00:01;9.68;;;4.97;;
71665;SDS011;59503;53.486;10.196;2023-04-15T00:02:27;7.47;;;4.37;;
71665;SDS011;59503;53.486;10.196;2023-04-15T00:04:52;9.40;;;4.60;;
71665;SDS011;59503;53.486;10.196;2023-04-15T00:07:17;10.55;;;4.72;;
71665;SDS011;59503;53.486;10.196;2023-04-15T00:09:43;8.17;;;4.43;;
71665;SDS011;59503;53.486;10.196;2023-04-15T00:12:09;11.23;;;4.67;;
71665;SDS011;59503;53.486;10.196;2023-04-15T00:14:35;9.15;;;4.63;;
71665;SDS011;59503;53.486;10.196;2023-04-15T00:17:01;9.20;;;4.70;;
71665;SDS011;59503;53.486;10.196;2023-04-15T00:19:27;9.23;;;5.10;;
71665;SDS011;59503;53.486;10.196;2023-04-15T00:21:53;9.77;;;5.32;;
71665;SDS011;59503;53.486;10.196;2023-04-15T00:24:19;11.43;;;4.93;;
71665;SDS011;59503;53.486;10.196;2023-04-15T00:26:44;11.93;;;5.00;;
71665;SDS011;59503;53.486;10.196;2023-04-15T00:29:09;10.30;;;5.40;;
71665;SDS011;59503;53.486;10.196;2023-04-15T00:31:35;17.52;;;5.40;;
71665;SDS011;59503;53.486;10.196;2023-04-15T00:34:00;10.27;;;5.33;;
71665;SDS011;59503;53.486;10.196;2023-04-15T00:36:27;12.02;;;4.88;;
71665;SDS011;59503;53.486;10.196;2023-04-15T00:38:53;12.30;;;5.60;;
71665;SDS011;59503;53.486;10.196;2023-04-15T00:41:18;11.47;;;5.13;;
71665;SDS011;59503;53.486;10.196;2023-04-15T00:43:45;9.75;;;5.03;;
71665;SDS011;59503;53.486;10.196;2023-04-15T00:46:11;11.20;;;5.13;;
71665;SDS011;59503;53.486;10.196;2023-04-15T00:48:39;10.82;;;4.45;;
71665;SDS011;59503;53.486;10.196;2023-04-15T00:51:05;11.68;;;5.32;;
71665;SDS011;59503;53.486;10.196;2023-04-15T00:53:31;8.88;;;5.10;;
71665;SDS011;59503;53.486;10.196;2023-04-15T00:55:57;11.83;;;4.70;;
71665;SDS011;59503;53.486;10.196;2023-04-15T00:58:22;9.63;;;5.20;;
71665;SDS011;59503;53.486;10.196;2023-04-15T01:00:48;10.90;;;4.80;;
71665;SDS011;59503;53.486;10.196;2023-04-15T01:03:18;11.65;;;5.35;;
71665;SDS011;59503;53.486;10.196;2023-04-15T01:05:45;10.43;;;4.80;;
71665;SDS011;59503;53.486;10.196;2023-04-15T01:08:10;9.38;;;4.88;;
71665;SDS011;59503;53.486;10.196;2023-04-15T01:10:36;10.88;;;5.55;;
71665;SDS011;59503;53.486;10.196;2023-04-15T01:13:02;11.13;;;5.30;;
71665;SDS011;59503;53.486;10.196;2023-04-15T01:15:28;12.00;;;5.85;;
71665;SDS011;59503;53.486;10.196;2023-04-15T01:17:54;11.02;;;5.60;;
71665;SDS011;59503;53.486;10.196;2023-04-15T01:20:22;12.80;;;5.40;;
71665;SDS011;59503;53.486;10.196;2023-04-15T01:22:48;11.90;;;5.07;;
71665;SDS011;59503;53.486;10.196;2023-04-15T01:25:17;12.65;;;5.72;;
71665;SDS011;59503;53.486;10.196;2023-04-15T01:27:44;10.82;;;5.15;;
71665;SDS011;59503;53.486;10.196;2023-04-15T01:30:09;14.83;;;5.90;;
71665;SDS011;59503;53.486;10.196;2023-04-15T01:32:35;11.93;;;5.37;;
71665;SDS011;59503;53.486;10.196;2023-04-15T01:35:01;9.67;;;5.03;;
71665;SDS011;59503;53.486;10.196;2023-04-15T01:37:27;12.15;;;5.45;;
71665;SDS011;59503;53.486;10.196;2023-04-15T01:39:52;9.37;;;5.20;;
71665;SDS011;59503;53.486;10.196;2023-04-15T01:42:19;10.17;;;4.87;;
71665;SDS011;59503;53.486;10.196;2023-04-15T01:44:45;13.20;;;5.90;;
71665;SDS011;59503;53.486;10.196;2023-04-15T01:47:11;11.38;;;5.50;;
71665;SDS011;59503;53.486;10.196;2023-04-15T01:49:37;10.77;;;5.60;;
71665;SDS011;59503;53.486;10.196;2023-04-15T01:52:02;12.10;;;5.23;;
71665;SDS011;59503;53.486;10.196;2023-04-15T01:54:28;11.13;;;5.20;;
71665;SDS011;59503;53.486;10.196;2023-04-15T01:56:53;13.70;;;5.97;;
71665;SDS011;59503;53.486;10.196;2023-04-15T01:59:18;14.00;;;6.47;;
71665;SDS011;59503;53.486;10.196;2023-04-15T02:01:44;12.57;;;6.30;;
71665;SDS011;59503;53.486;10.196;2023-04-15T02:04:10;13.73;;;6.50;;
71665;SDS011;59503;53.486;10.196;2023-04-15T02:06:44;11.60;;;6.57;;
71665;SDS011;59503;53.486;10.196;2023-04-15T02:09:10;13.07;;;6.38;;
71665;SDS011;59503;53.486;10.196;2023-04-15T02:11:36;12.68;;;5.80;;
71665;SDS011;59503;53.486;10.196;2023-04-15T02:14:04;15.70;;;6.63;;
71665;SDS011;59503;53.486;10.196;2023-04-15T02:16:30;13.32;;;5.65;;
71665;SDS011;59503;53.486;10.196;2023-04-15T02:18:56;16.15;;;6.80;;
71665;SDS011;59503;53.486;10.196;2023-04-15T02:21:22;16.73;;;6.27;;
71665;SDS011;59503;53.486;10.196;2023-04-15T02:23:47;17.90;;;7.23;;
71665;SDS011;59503;53.486;10.196;2023-04-15T02:26:13;17.92;;;7.05;;
71665;SDS011;59503;53.486;10.196;2023-04-15T02:28:39;18.17;;;6.63;;
71665;SDS011;59503;53.486;10.196;2023-04-15T02:31:07;17.65;;;7.35;;
71665;SDS011;59503;53.486;10.196;2023-04-15T02:33:33;17.98;;;7.13;;
71665;SDS011;59503;53.486;10.196;2023-04-15T02:35:59;23.00;;;7.47;;
71665;SDS011;59503;53.486;10.196;2023-04-15T02:38:24;19.95;;;8.35;;
71665;SDS011;59503;53.486;10.196;2023-04-15T02:40:50;23.30;;;8.00;;
71665;SDS011;59503;53.486;10.196;2023-04-15T02:43:16;21.00;;;8.07;;
71665;SDS011;59503;53.486;10.196;2023-04-15T02:45:41;21.95;;;8.32;;
71665;SDS011;59503;53.486;10.196;2023-04-15T02:48:07;21.88;;;8.75;;
71665;SDS011;59503;53.486;10.196;2023-04-15T02:50:33;22.50;;;8.37;;
71665;SDS011;59503;53.486;10.196;2023-04-15T02:52:59;20.95;;;8.50;;
71665;SDS011;59503;53.486;10.196;2023-04-15T02:55:25;22.80;;;8.50;;
71665;SDS011;59503;53.486;10.196;2023-04-15T02:57:51;22.63;;;8.48;;
71665;SDS011;59503;53.486;10.196;2023-04-15T03:00:16;21.93;;;8.60;;
71665;SDS011;59503;53.486;10.196;2023-04-15T03:02:41;20.13;;;8.67;;
71665;SDS011;59503;53.486;10.196;2023-04-15T03:05:10;26.58;;;9.30;;
71665;SDS011;59503;53.486;10.196;2023-04-15T03:07:37;23.17;;;9.05;;
71665;SDS011;59503;53.486;10.196;2023-04-15T03:10:05;27.92;;;9.40;;
71665;SDS011;59503;53.486;10.196;2023-04-15T03:12:31;28.23;;;10.17;;
71665;SDS011;59503;53.486;10.196;2023-04-15T03:14:56;28.30;;;10.50;;
71665;SDS011;59503;53.486;10.196;2023-04-15T03:17:22;25.47;;;9.63;;
71665;SDS011;59503;53.486;10.196;2023-04-15T03:19:47;26.80;;;10.00;;
71665;SDS011;59503;53.486;10.196;2023-04-15T03:22:12;26.73;;;10.37;;
71665;SDS011;59503;53.486;10.196;2023-04-15T03:24:38;29.70;;;10.37;;
71665;SDS011;59503;53.486;10.196;2023-04-15T03:27:04;31.50;;;11.50;;
71665;SDS011;59503;53.486;10.196;2023-04-15T03:29:31;32.80;;;11.60;;
71665;SDS011;59503;53.486;10.196;2023-04-15T03:31:57;30.90;;;11.07;;
71665;SDS011;59503;53.486;10.196;2023-04-15T03:34:22;29.73;;;10.70;;
71665;SDS011;59503;53.486;10.196;2023-04-15T03:36:48;33.47;;;11.47;;
71665;SDS011;59503;53.486;10.196;2023-04-15T03:39:14;28.67;;;10.63;;
71665;SDS011;59503;53.486;10.196;2023-04-15T03:41:39;34.07;;;11.03;;
71665;SDS011;59503;53.486;10.196;2023-04-15T03:44:04;35.67;;;11.33;;
71665;SDS011;59503;53.486;10.196;2023-04-15T03:46:30;32.50;;;10.88;;
71665;SDS011;59503;53.486;10.196;2023-04-15T03:48:56;30.97;;;11.37;;
71665;SDS011;59503;53.486;10.196;2023-04-15T03:51:21;30.37;;;11.13;;
71665;SDS011;59503;53.486;10.196;2023-04-15T03:53:46;31.40;;;10.90;;
71665;SDS011;59503;53.486;10.196;2023-04-15T03:56:12;31.50;;;10.97;;
71665;SDS011;59503;53.486;10.196;2023-04-15T03:58:37;30.97;;;11.03;;
71665;SDS011;59503;53.486;10.196;2023-04-15T04:01:02;33.80;;;11.13;;
71665;SDS011;59503;53.486;10.196;2023-04-15T04:03:28;38.42;;;11.07;;
71665;SDS011;59503;53.486;10.196;2023-04-15T04:05:54;31.70;;;11.07;;
71665;SDS011;59503;53.486;10.196;2023-04-15T04:08:20;36.10;;;11.45;;
71665;SDS011;59503;53.486;10.196;2023-04-15T04:10:46;35.80;;;12.13;;
71665;SDS011;59503;53.486;10.196;2023-04-15T04:13:11;35.53;;;11.68;;
71665;SDS011;59503;53.486;10.196;2023-04-15T04:15:37;32.93;;;11.70;;
71665;SDS011;59503;53.486;10.196;2023-04-15T04:18:02;36.13;;;11.47;;
71665;SDS011;59503;53.486;10.196;2023-04-15T04:20:27;35.63;;;11.67;;
71665;SDS011;59503;53.486;10.196;2023-04-15T04:22:53;37.65;;;12.10;;
71665;SDS011;59503;53.486;10.196;2023-04-15T04:25:19;36.43;;;12.27;;
71665;SDS011;59503;53.486;10.196;2023-04-15T04:27:44;37.93;;;12.37;;
71665;SDS011;59503;53.486;10.196;2023-04-15T04:30:10;43.38;;;13.63;;
71665;SDS011;59503;53.486;10.196;2023-04-15T04:32:37;44.20;;;14.10;;
71665;SDS011;59503;53.486;10.196;2023-04-15T04:35:02;42.27;;;13.87;;
71665;SDS011;59503;53.486;10.196;2023-04-15T04:37:28;45.92;;;14.98;;
71665;SDS011;59503;53.486;10.196;2023-04-15T04:39:54;42.87;;;14.37;;
71665;SDS011;59503;53.486;10.196;2023-04-15T04:42:20;46.53;;;14.45;;
71665;SDS011;59503;53.486;10.196;2023-04-15T04:44:46;55.95;;;16.70;;
71665;SDS011;59503;53.486;10.196;2023-04-15T04:47:11;55.13;;;16.10;;
71665;SDS011;59503;53.486;10.196;2023-04-15T04:49:37;61.97;;;17.37;;
71665;SDS011;59503;53.486;10.196;2023-04-15T04:52:02;58.58;;;16.13;;
71665;SDS011;59503;53.486;10.196;2023-04-15T04:54:27;57.63;;;16.67;;
71665;SDS011;59503;53.486;10.196;2023-04-15T04:56:54;53.75;;;16.13;;
71665;SDS011;59503;53.486;10.196;2023-04-15T04:59:21;56.27;;;16.73;;
71665;SDS011;59503;53.486;10.196;2023-04-15T05:01:47;54.42;;;16.13;;
71665;SDS011;59503;53.486;10.196;2023-04-15T05:04:12;60.23;;;17.23;;
71665;SDS011;59503;53.486;10.196;2023-04-15T05:06:38;63.57;;;19.20;;
71665;SDS011;59503;53.486;10.196;2023-04-15T05:09:03;59.60;;;17.63;;
71665;SDS011;59503;53.486;10.196;2023-04-15T05:11:29;65.90;;;19.63;;
71665;SDS011;59503;53.486;10.196;2023-04-15T05:13:54;66.50;;;19.37;;
71665;SDS011;59503;53.486;10.196;2023-04-15T05:16:20;64.95;;;19.63;;
71665;SDS011;59503;53.486;10.196;2023-04-15T05:18:45;68.43;;;20.40;;
71665;SDS011;59503;53.486;10.196;2023-04-15T05:21:10;65.10;;;21.10;;
71665;SDS011;59503;53.486;10.196;2023-04-15T05:23:36;60.30;;;20.80;;
71665;SDS011;59503;53.486;10.196;2023-04-15T05:26:02;67.30;;;20.92;;
71665;SDS011;59503;53.486;10.196;2023-04-15T05:28:27;65.17;;;21.17;;
71665;SDS011;59503;53.486;10.196;2023-04-15T05:30:53;68.77;;;22.13;;
71665;SDS011;59503;53.486;10.196;2023-04-15T05:33:18;67.97;;;23.33;;
71665;SDS011;59503;53.486;10.196;2023-04-15T05:35:44;66.97;;;22.40;;
71665;SDS011;59503;53.486;10.196;2023-04-15T05:38:09;64.35;;;23.25;;
71665;SDS011;59503;53.486;10.196;2023-04-15T05:40:35;62.87;;;22.30;;
71665;SDS011;59503;53.486;10.196;2023-04-15T05:43:00;70.38;;;23.73;;
71665;SDS011;59503;53.486;10.196;2023-04-15T05:45:26;67.47;;;23.60;;
71665;SDS011;59503;53.486;10.196;2023-04-15T05:47:51;66.87;;;24.13;;
71665;SDS011;59503;53.486;10.196;2023-04-15T05:50:18;68.38;;;23.73;;
71665;SDS011;59503;53.486;10.196;2023-04-15T05:52:44;67.97;;;23.58;;
71665;SDS011;59503;53.486;10.196;2023-04-15T05:55:10;65.27;;;24.33;;
71665;SDS011;59503;53.486;10.196;2023-04-15T05:57:35;65.57;;;25.10;;
71665;SDS011;59503;53.486;10.196;2023-04-15T06:00:01;78.88;;;26.80;;
71665;SDS011;59503;53.486;10.196;2023-04-15T06:02:29;83.70;;;26.07;;
71665;SDS011;59503;53.486;10.196;2023-04-15T06:04:55;74.90;;;25.88;;
71665;SDS011;59503;53.486;10.196;2023-04-15T06:07:21;73.18;;;26.95;;
71665;SDS011;59503;53.486;10.196;2023-04-15T06:09:47;66.85;;;25.30;;
71665;SDS011;59503;53.486;10.196;2023-04-15T06:12:13;67.43;;;24.93;;
71665;SDS011;59503;53.486;10.196;2023-04-15T06:14:38;72.87;;;24.63;;
71665;SDS011;59503;53.486;10.196;2023-04-15T06:17:04;69.03;;;25.45;;
71665;SDS011;59503;53.486;10.196;2023-04-15T06:19:30;72.53;;;26.27;;
71665;SDS011;59503;53.486;10.196;2023-04-15T06:21:56;73.20;;;25.47;;
71665;SDS011;59503;53.486;10.196;2023-04-15T06:24:22;70.70;;;25.95;;
71665;SDS011;59503;53.486;10.196;2023-04-15T06:26:47;72.90;;;27.13;;
71665;SDS011;59503;53.486;10.196;2023-04-15T06:29:13;74.73;;;27.07;;
71665;SDS011;59503;53.486;10.196;2023-04-15T06:31:38;68.37;;;24.73;;
71665;SDS011;59503;53.486;10.196;2023-04-15T06:34:04;70.30;;;26.33;;
71665;SDS011;59503;53.486;10.196;2023-04-15T06:36:29;75.27;;;26.43;;
71665;SDS011;59503;53.486;10.196;2023-04-15T06:38:55;72.07;;;27.20;;
71665;SDS011;59503;53.486;10.196;2023-04-15T06:41:21;73.87;;;25.90;;
71665;SDS011;59503;53.486;10.196;2023-04-15T06:43:46;75.93;;;26.73;;
71665;SDS011;59503;53.486;10.196;2023-04-15T06:46:12;71.73;;;25.83;;
71665;SDS011;59503;53.486;10.196;2023-04-15T06:48:37;71.72;;;25.95;;
71665;SDS011;59503;53.486;10.196;2023-04-15T06:51:03;75.38;;;27.95;;
71665;SDS011;59503;53.486;10.196;2023-04-15T06:53:29;75.57;;;26.03;;
71665;SDS011;59503;53.486;10.196;2023-04-15T06:55:54;76.13;;;27.03;;
71665;SDS011;59503;53.486;10.196;2023-04-15T06:58:20;76.80;;;26.33;;
71665;SDS011;59503;53.486;10.196;2023-04-15T07:00:46;69.07;;;25.63;;
71665;SDS011;59503;53.486;10.196;2023-04-15T07:03:12;72.22;;;26.58;;
71665;SDS011;59503;53.486;10.196;2023-04-15T07:05:37;76.77;;;25.73;;
71665;SDS011;59503;53.486;10.196;2023-04-15T07:08:03;67.00;;;26.13;;
71665;SDS011;59503;53.486;10.196;2023-04-15T07:10:29;67.93;;;25.50;;
71665;SDS011;59503;53.486;10.196;2023-04-15T07:12:55;80.47;;;28.87;;
71665;SDS011;59503;53.486;10.196;2023-04-15T07:15:21;76.55;;;27.10;;
71665;SDS011;59503;53.486;10.196;2023-04-15T07:17:47;74.40;;;26.55;;
71665;SDS011;59503;53.486;10.196;2023-04-15T07:20:13;72.33;;;27.17;;
71665;SDS011;59503;53.486;10.196;2023-04-15T07:22:38;82.97;;;28.87;;
71665;SDS011;59503;53.486;10.196;2023-04-15T07:25:04;77.15;;;28.48;;
71665;SDS011;59503;53.486;10.196;2023-04-15T07:27:30;89.32;;;29.35;;
71665;SDS011;59503;53.486;10.196;2023-04-15T07:29:56;84.70;;;29.10;;
71665;SDS011;59503;53.486;10.196;2023-04-15T07:32:21;74.07;;;26.73;;
71665;SDS011;59503;53.486;10.196;2023-04-15T07:34:47;70.60;;;26.57;;
71665;SDS011;59503;53.486;10.196;2023-04-15T07:37:12;64.63;;;26.20;;
71665;SDS011;59503;53.486;10.196;2023-04-15T07:39:38;70.75;;;26.02;;
71665;SDS011;59503;53.486;10.196;2023-04-15T07:42:04;70.20;;;27.63;;
71665;SDS011;59503;53.486;10.196;2023-04-15T07:44:29;68.70;;;26.30;;
71665;SDS011;59503;53.486;10.196;2023-04-15T07:46:55;68.35;;;27.38;;
71665;SDS011;59503;53.486;10.196;2023-04-15T07:49:21;73.78;;;26.40;;
71665;SDS011;59503;53.486;10.196;2023-04-15T07:51:47;71.80;;;27.03;;
71665;SDS011;59503;53.486;10.196;2023-04-15T07:54:13;69.00;;;27.52;;
71665;SDS011;59503;53.486;10.196;2023-04-15T07:56:39;71.55;;;27.30;;
71665;SDS011;59503;53.486;10.196;2023-04-15T07:59:05;73.90;;;27.17;;
71665;SDS011;59503;53.486;10.196;2023-04-15T08:01:31;69.38;;;26.33;;
71665;SDS011;59503;53.486;10.196;2023-04-15T08:03:57;74.50;;;28.75;;
71665;SDS011;59503;53.486;10.196;2023-04-15T08:06:23;66.90;;;25.93;;
71665;SDS011;59503;53.486;10.196;2023-04-15T08:08:48;69.45;;;27.55;;
71665;SDS011;59503;53.486;10.196;2023-04-15T08:11:14;68.73;;;26.70;;
71665;SDS011;59503;53.486;10.196;2023-04-15T08:13:39;62.73;;;26.43;;
71665;SDS011;59503;53.486;10.196;2023-04-15T08:16:16;62.53;;;26.65;;
71665;SDS011;59503;53.486;10.196;2023-04-15T08:18:43;73.03;;;28.07;;
71665;SDS011;59503;53.486;10.196;2023-04-15T08:21:09;61.85;;;25.17;;
71665;SDS011;59503;53.486;10.196;2023-04-15T08:23:35;68.28;;;26.35;;
71665;SDS011;59503;53.486;10.196;2023-04-15T08:26:00;61.77;;;26.60;;
71665;SDS011;59503;53.486;10.196;2023-04-15T08:28:26;63.40;;;27.20;;
71665;SDS011;59503;53.486;10.196;2023-04-15T08:30:51;70.10;;;27.07;;
71665;SDS011;59503;53.486;10.196;2023-04-15T08:33:17;62.43;;;24.60;;
71665;SDS011;59503;53.486;10.196;2023-04-15T08:35:43;58.17;;;24.13;;
71665;SDS011;59503;53.486;10.196;2023-04-15T08:38:08;58.73;;;25.67;;
71665;SDS011;59503;53.486;10.196;2023-04-15T08:40:40;65.80;;;25.50;;
71665;SDS011;59503;53.486;10.196;2023-04-15T08:43:08;57.17;;;24.10;;
71665;SDS011;59503;53.486;10.196;2023-04-15T08:45:38;64.15;;;27.40;;
71665;SDS011;59503;53.486;10.196;2023-04-15T08:48:04;59.47;;;25.23;;
71665;SDS011;59503;53.486;10.196;2023-04-15T08:50:30;59.45;;;24.50;;
71665;SDS011;59503;53.486;10.196;2023-04-15T08:53:00;57.70;;;25.00;;
71665;SDS011;59503;53.486;10.196;2023-04-15T08:55:29;53.47;;;24.83;;
71665;SDS011;59503;53.486;10.196;2023-04-15T08:58:03;61.95;;;25.00;;
71665;SDS011;59503;53.486;10.196;2023-04-15T09:00:29;59.10;;;24.95;;
71665;SDS011;59503;53.486;10.196;2023-04-15T09:02:57;67.60;;;26.77;;
71665;SDS011;59503;53.486;10.196;2023-04-15T09:05:23;62.43;;;25.73;;
71665;SDS011;59503;53.486;10.196;2023-04-15T09:07:51;62.25;;;26.25;;
71665;SDS011;59503;53.486;10.196;2023-04-15T09:10:17;61.90;;;25.33;;
71665;SDS011;59503;53.486;10.196;2023-04-15T09:12:42;63.78;;;25.38;;
71665;SDS011;59503;53.486;10.196;2023-04-15T09:15:10;60.83;;;25.43;;
71665;SDS011;59503;53.486;10.196;2023-04-15T09:17:41;60.13;;;25.02;;
71665;SDS011;59503;53.486;10.196;2023-04-15T09:22:34;56.40;;;23.40;;
71665;SDS011;59503;53.486;10.196;2023-04-15T09:25:01;54.78;;;23.73;;
71665;SDS011;59503;53.486;10.196;2023-04-15T09:27:26;57.90;;;25.10;;
71665;SDS011;59503;53.486;10.196;2023-04-15T09:29:52;44.63;;;22.55;;
71665;SDS011;59503;53.486;10.196;2023-04-15T09:32:18;43.77;;;20.93;;
71665;SDS011;59503;53.486;10.196;2023-04-15T09:34:45;43.13;;;21.50;;
71665;SDS011;59503;53.486;10.196;2023-04-15T09:37:10;46.65;;;22.23;;
71665;SDS011;59503;53.486;10.196;2023-04-15T09:39:56;38.73;;;19.23;;
71665;SDS011;59503;53.486;10.196;2023-04-15T09:42:21;40.45;;;18.67;;
71665;SDS011;59503;53.486;10.196;2023-04-15T09:44:50;36.03;;;18.48;;
71665;SDS011;59503;53.486;10.196;2023-04-15T09:47:28;35.35;;;17.20;;
71665;SDS011;59503;53.486;10.196;2023-04-15T09:49:55;31.90;;;16.92;;
71665;SDS011;59503;53.486;10.196;2023-04-15T09:52:22;35.60;;;17.77;;
71665;SDS011;59503;53.486;10.196;2023-04-15T09:54:47;30.15;;;15.75;;
71665;SDS011;59503;53.486;10.196;2023-04-15T09:57:12;31.23;;;15.63;;
71665;SDS011;59503;53.486;10.196;2023-04-15T09:59:38;28.90;;;15.30;;
71665;SDS011;59503;53.486;10.196;2023-04-15T10:02:04;29.43;;;15.67;;
71665;SDS011;59503;53.486;10.196;2023-04-15T10:04:38;28.02;;;15.18;;
71665;SDS011;59503;53.486;10.196;2023-04-15T10:07:06;28.73;;;14.73;;
71665;SDS011;59503;53.486;10.196;2023-04-15T10:09:34;29.40;;;14.88;;
71665;SDS011;59503;53.486;10.196;2023-04-15T10:12:01;27.35;;;15.32;;
71665;SDS011;59503;53.486;10.196;2023-04-15T10:14:30;28.80;;;15.83;;
71665;SDS011;59503;53.486;10.196;2023-04-15T10:16:57;26.05;;;15.25;;
71665;SDS011;59503;53.486;10.196;2023-04-15T10:19:25;31.73;;;15.18;;
71665;SDS011;59503;53.486;10.196;2023-04-15T10:21:52;25.40;;;14.00;;
71665;SDS011;59503;53.486;10.196;2023-04-15T10:24:19;28.98;;;15.48;;
71665;SDS011;59503;53.486;10.196;2023-04-15T10:26:45;26.77;;;15.87;;
71665;SDS011;59503;53.486;10.196;2023-04-15T10:29:11;29.95;;;15.13;;
71665;SDS011;59503;53.486;10.196;2023-04-15T10:31:37;24.53;;;14.00;;
71665;SDS011;59503;53.486;10.196;2023-04-15T10:34:03;24.83;;;13.43;;
71665;SDS011;59503;53.486;10.196;2023-04-15T10:36:31;27.88;;;14.30;;
71665;SDS011;59503;53.486;10.196;2023-04-15T10:38:57;21.55;;;13.38;;
71665;SDS011;59503;53.486;10.196;2023-04-15T10:41:23;23.73;;;13.20;;
71665;SDS011;59503;53.486;10.196;2023-04-15T10:49:16;29.25;;;14.02;;
71665;SDS011;59503;53.486;10.196;2023-04-15T10:51:57;22.03;;;13.37;;
71665;SDS011;59503;53.486;10.196;2023-04-15T11:02:40;29.67;;;14.10;;
71665;SDS011;59503;53.486;10.196;2023-04-15T11:05:08;22.55;;;13.38;;
71665;SDS011;59503;53.486;10.196;2023-04-15T11:07:38;23.88;;;13.35;;
71665;SDS011;59503;53.486;10.196;2023-04-15T11:12:38;23.80;;;13.48;;
71665;SDS011;59503;53.486;10.196;2023-04-15T11:17:59;25.27;;;13.55;;
71665;SDS011;59503;53.486;10.196;2023-04-15T11:20:34;26.15;;;13.05;;
71665;SDS011;59503;53.486;10.196;2023-04-15T11:23:00;23.27;;;12.37;;
71665;SDS011;59503;53.486;10.196;2023-04-15T11:25:27;21.15;;;12.15;;
71665;SDS011;59503;53.486;10.196;2023-04-15T11:27:54;20.70;;;12.38;;
71665;SDS011;59503;53.486;10.196;2023-04-15T11:30:21;21.00;;;13.00;;
71665;SDS011;59503;53.486;10.196;2023-04-15T11:32:52;18.13;;;11.18;;
71665;SDS011;59503;53.486;10.196;2023-04-15T11:35:19;20.92;;;11.88;;
71665;SDS011;59503;53.486;10.196;2023-04-15T11:37:45;20.30;;;12.75;;
71665;SDS011;59503;53.486;10.196;2023-04-15T11:40:11;19.37;;;12.33;;
71665;SDS011;59503;53.486;10.196;2023-04-15T11:42:37;20.65;;;12.43;;
71665;SDS011;59503;53.486;10.196;2023-04-15T11:45:13;20.52;;;12.77;;
71665;SDS011;59503;53.486;10.196;2023-04-15T11:47:40;27.60;;;12.93;;
71665;SDS011;59503;53.486;10.196;2023-04-15T11:50:16;22.93;;;13.00;;
71665;SDS011;59503;53.486;10.196;2023-04-15T11:52:52;20.85;;;12.82;;
71665;SDS011;59503;53.486;10.196;2023-04-15T11:55:22;21.73;;;12.52;;
71665;SDS011;59503;53.486;10.196;2023-04-15T12:00:32;17.88;;;11.45;;
71665;SDS011;59503;53.486;10.196;2023-04-15T12:16:56;20.17;;;11.00;;
71665;SDS011;59503;53.486;10.196;2023-04-15T12:19:23;15.20;;;10.55;;
71665;SDS011;59503;53.486;10.196;2023-04-15T12:21:50;15.80;;;10.57;;
71665;SDS011;59503;53.486;10.196;2023-04-15T12:24:18;14.95;;;10.20;;
71665;SDS011;59503;53.486;10.196;2023-04-15T12:26:47;16.23;;;10.23;;
71665;SDS011;59503;53.486;10.196;2023-04-15T12:29:15;14.33;;;10.13;;
71665;SDS011;59503;53.486;10.196;2023-04-15T12:31:48;17.38;;;10.90;;
71665;SDS011;59503;53.486;10.196;2023-04-15T12:34:15;16.30;;;10.07;;
71665;SDS011;59503;53.486;10.196;2023-04-15T12:36:41;17.33;;;10.95;;
71665;SDS011;59503;53.486;10.196;2023-04-15T12:39:07;16.80;;;11.10;;
71665;SDS011;59503;53.486;10.196;2023-04-15T12:41:33;16.07;;;10.40;;
71665;SDS011;59503;53.486;10.196;2023-04-15T12:43:59;16.38;;;10.25;;
71665;SDS011;59503;53.486;10.196;2023-04-15T12:46:25;16.25;;;10.05;;
71665;SDS011;59503;53.486;10.196;2023-04-15T12:48:51;14.80;;;10.07;;
71665;SDS011;59503;53.486;10.196;2023-04-15T12:51:17;15.18;;;10.43;;
71665;SDS011;59503;53.486;10.196;2023-04-15T12:53:43;15.68;;;10.70;;
71665;SDS011;59503;53.486;10.196;2023-04-15T12:56:08;17.43;;;10.23;;
71665;SDS011;59503;53.486;10.196;2023-04-15T12:58:34;17.65;;;10.65;;
71665;SDS011;59503;53.486;10.196;2023-04-15T13:01:00;16.13;;;10.07;;
71665;SDS011;59503;53.486;10.196;2023-04-15T13:03:25;16.00;;;10.57;;
71665;SDS011;59503;53.486;10.196;2023-04-15T13:05:50;16.40;;;10.10;;
71665;SDS011;59503;53.486;10.196;2023-04-15T13:08:16;16.20;;;10.63;;
71665;SDS011;59503;53.486;10.196;2023-04-15T13:10:42;22.97;;;11.27;;
71665;SDS011;59503;53.486;10.196;2023-04-15T13:13:07;18.40;;;11.30;;
71665;SDS011;59503;53.486;10.196;2023-04-15T13:15:33;16.93;;;11.10;;
71665;SDS011;59503;53.486;10.196;2023-04-15T13:17:58;24.80;;;11.98;;
71665;SDS011;59503;53.486;10.196;2023-04-15T13:20:24;22.67;;;12.77;;
71665;SDS011;59503;53.486;10.196;2023-04-15T13:22:51;22.42;;;12.35;;
71665;SDS011;59503;53.486;10.196;2023-04-15T13:25:16;18.55;;;12.18;;
71665;SDS011;59503;53.486;10.196;2023-04-15T13:27:42;19.30;;;12.90;;
71665;SDS011;59503;53.486;10.196;2023-04-15T13:30:07;19.30;;;11.60;;
71665;SDS011;59503;53.486;10.196;2023-04-15T13:32:33;21.25;;;11.95;;
71665;SDS011;59503;53.486;10.196;2023-04-15T13:34:58;20.53;;;11.70;;
71665;SDS011;59503;53.486;10.196;2023-04-15T13:37:27;16.07;;;10.93;;
71665;SDS011;59503;53.486;10.196;2023-04-15T13:39:53;19.90;;;11.65;;
71665;SDS011;59503;53.486;10.196;2023-04-15T13:42:20;18.65;;;10.48;;
71665;SDS011;59503;53.486;10.196;2023-04-15T13:44:45;15.63;;;10.50;;
71665;SDS011;59503;53.486;10.196;2023-04-15T13:47:11;18.55;;;11.10;;
71665;SDS011;59503;53.486;10.196;2023-04-15T13:49:38;16.85;;;10.32;;
71665;SDS011;59503;53.486;10.196;2023-04-15T13:52:04;17.57;;;10.50;;
71665;SDS011;59503;53.486;10.196;2023-04-15T13:54:30;16.58;;;10.98;;
71665;SDS011;59503;53.486;10.196;2023-04-15T13:56:55;14.70;;;9.80;;
71665;SDS011;59503;53.486;10.196;2023-04-15T13:59:22;16.35;;;10.23;;
71665;SDS011;59503;53.486;10.196;2023-04-15T14:01:47;17.23;;;10.80;;
71665;SDS011;59503;53.486;10.196;2023-04-15T14:04:13;15.10;;;10.13;;
71665;SDS011;59503;53.486;10.196;2023-04-15T14:06:38;19.37;;;10.53;;
71665;SDS011;59503;53.486;10.196;2023-04-15T14:09:04;18.53;;;10.10;;
71665;SDS011;59503;53.486;10.196;2023-04-15T14:11:30;19.87;;;9.80;;
71665;SDS011;59503;53.486;10.196;2023-04-15T14:13:55;16.00;;;9.35;;
71665;SDS011;59503;53.486;10.196;2023-04-15T14:16:21;14.47;;;8.73;;
71665;SDS011;59503;53.486;10.196;2023-04-15T14:18:46;12.13;;;8.70;;
71665;SDS011;59503;53.486;10.196;2023-04-15T14:21:12;12.23;;;8.05;;
71665;SDS011;59503;53.486;10.196;2023-04-15T14:23:37;13.67;;;8.30;;
71665;SDS011;59503;53.486;10.196;2023-04-15T14:26:03;14.43;;;9.10;;
71665;SDS011;59503;53.486;10.196;2023-04-15T14:28:28;14.50;;;8.55;;
71665;SDS011;59503;53.486;10.196;2023-04-15T14:30:54;17.07;;;9.50;;
71665;SDS011;59503;53.486;10.196;2023-04-15T14:33:19;15.83;;;9.90;;
71665;SDS011;59503;53.486;10.196;2023-04-15T14:35:45;15.83;;;8.97;;
71665;SDS011;59503;53.486;10.196;2023-04-15T14:38:10;15.95;;;9.52;;
71665;SDS011;59503;53.486;10.196;2023-04-15T14:40:35;14.03;;;9.20;;
71665;SDS011;59503;53.486;10.196;2023-04-15T14:43:01;16.23;;;8.53;;
71665;SDS011;59503;53.486;10.196;2023-04-15T14:45:27;16.65;;;9.63;;